Time;durP1;ratioP1;P1;durP2;ratioP2;P2;SDS_P1;SDS_P2;PMS_P1;PMS_P2;Temp;Humidity;BMP_temperature;BMP_pressure;BME280_temperature;BME280_humidity;BME280_pressure;Samples;Min_cycle;Max_cycle;Signal;HPM_P1;HPM_P2
2022/04/28 00:01:54;;;;;;;11.07;8.53;;;;;;;12.45;63.33;101214.81;5029344;28;20400;-68
2022/04/28 00:04:19;;;;;;;8.90;8.00;;;;;;;12.43;63.54;101212.38;5019499;28;20438;-68
2022/04/28 00:06:45;;;;;;;8.40;7.57;;;;;;;12.45;63.48;101210.22;5023742;28;20421;-68
2022/04/28 00:09:10;;;;;;;9.60;8.02;;;;;;;12.45;63.53;101215.66;5028518;28;21004;-68
2022/04/28 00:11:35;;;;;;;7.93;7.13;;;;;;;12.43;63.94;101216.97;5017012;28;20835;-68
2022/04/28 00:14:01;;;;;;;8.77;7.88;;;;;;;12.38;63.84;101204.09;5031145;28;20406;-68
2022/04/28 00:16:27;;;;;;;8.40;7.60;;;;;;;12.38;63.69;101209.50;5024807;28;20389;-68
2022/04/28 00:18:52;;;;;;;8.63;7.80;;;;;;;12.35;63.91;101212.72;5020132;28;20817;-68
2022/04/28 00:21:18;;;;;;;9.50;8.60;;;;;;;12.32;64.04;101213.19;5030111;28;20399;-68
2022/04/28 00:23:43;;;;;;;8.60;7.80;;;;;;;12.30;63.77;101209.06;5014000;28;20410;-68
2022/04/28 00:26:08;;;;;;;9.60;8.50;;;;;;;12.29;63.73;101218.28;5025384;28;20413;-68
2022/04/28 00:28:34;;;;;;;8.03;7.23;;;;;;;12.27;63.79;101213.09;5026701;28;20472;-68
2022/04/28 00:30:59;;;;;;;7.83;7.13;;;;;;;12.24;63.58;101215.47;5018083;28;20396;-68
2022/04/28 00:33:24;;;;;;;8.63;6.97;;;;;;;12.17;63.76;101209.31;5016023;28;20450;-68
2022/04/28 00:35:50;;;;;;;9.35;7.60;;;;;;;12.16;63.98;101213.09;5026308;28;20446;-68
2022/04/28 00:38:15;;;;;;;8.00;7.20;;;;;;;12.17;63.86;101212.88;5033641;28;20437;-68
2022/04/28 00:40:40;;;;;;;8.50;7.70;;;;;;;12.18;63.67;101206.38;5009262;28;20476;-68
2022/04/28 00:43:23;;;;;;;7.73;7.07;;;;;;;12.19;63.89;101208.00;5024203;28;20400;-68
2022/04/28 00:45:50;;;;;;;7.88;7.30;;;;;;;12.18;63.73;101216.41;5024013;28;20414;-68
2022/04/28 00:51:02;;;;;;;7.77;7.07;;;;;;;12.16;63.54;101207.66;5016057;28;20776;-68
2022/04/28 00:53:29;;;;;;;7.18;6.57;;;;;;;12.14;63.23;101209.78;5029428;28;20415;-68
2022/04/28 00:55:56;;;;;;;7.22;6.57;;;;;;;12.04;63.51;101212.28;5024166;28;20404;-68
2022/04/28 00:58:22;;;;;;;8.85;6.75;;;;;;;12.00;63.72;101205.66;5022995;28;20929;-68
2022/04/28 01:00:47;;;;;;;7.93;6.57;;;;;;;11.95;63.83;101206.38;5023035;28;20507;-68
2022/04/28 01:03:13;;;;;;;6.97;6.37;;;;;;;11.92;64.09;101210.38;5011053;28;20512;-68
2022/04/28 01:05:39;;;;;;;7.00;6.40;;;;;;;11.90;63.93;101215.22;5029018;28;20502;-68
2022/04/28 01:08:06;;;;;;;8.00;6.90;;;;;;;11.88;63.86;101209.22;5020008;28;20440;-68
2022/04/28 01:10:32;;;;;;;7.82;7.22;;;;;;;11.80;63.76;101204.09;5029356;28;20402;-68
2022/04/28 01:12:57;;;;;;;7.93;7.23;;;;;;;11.72;64.12;101203.63;5027518;28;20404;-68
2022/04/28 01:15:22;;;;;;;7.77;7.07;;;;;;;11.69;64.50;101213.03;5025190;28;20447;-68
2022/04/28 01:17:47;;;;;;;7.30;6.70;;;;;;;11.69;64.46;101221.16;5012816;28;20872;-68
2022/04/28 01:20:13;;;;;;;7.72;7.03;;;;;;;11.71;64.51;101218.25;5025111;28;20451;-68
2022/04/28 01:22:38;;;;;;;7.73;6.93;;;;;;;11.72;64.60;101218.00;5030922;28;20403;-68
2022/04/28 01:25:07;;;;;;;8.50;7.67;;;;;;;11.71;65.04;101210.94;5025385;28;20454;-68
2022/04/28 01:27:33;;;;;;;8.77;7.28;;;;;;;11.71;64.79;101221.81;5017818;28;20428;-68
2022/04/28 01:29:59;;;;;;;7.60;6.88;;;;;;;11.70;64.72;101212.00;5015229;28;20482;-68
2022/04/28 01:32:25;;;;;;;8.20;7.22;;;;;;;11.69;64.84;101217.66;5026317;28;20503;-68
2022/04/28 01:34:50;;;;;;;7.57;6.97;;;;;;;11.66;64.71;101216.22;5012426;28;20444;-68
2022/04/28 01:37:16;;;;;;;7.60;7.00;;;;;;;11.66;64.87;101209.94;5023803;28;20402;-68
2022/04/28 01:39:41;;;;;;;8.60;7.00;;;;;;;11.65;64.98;101211.03;5018005;28;20447;-68
2022/04/28 01:42:07;;;;;;;7.50;6.80;;;;;;;11.65;64.80;101216.47;5017394;28;20409;-68
2022/04/28 01:44:33;;;;;;;7.57;6.97;;;;;;;11.62;64.81;101216.94;5012216;28;20834;-68
2022/04/28 01:46:59;;;;;;;8.03;7.30;;;;;;;11.58;65.17;101213.00;5015383;28;20427;-68
2022/04/28 01:49:24;;;;;;;8.02;7.30;;;;;;;11.54;65.12;101209.94;5029870;28;20422;-68
2022/04/28 01:57:17;;;;;;;9.52;8.63;;;;;;;11.33;65.24;101215.88;5017928;28;20380;-69
2022/04/28 01:59:43;;;;;;;9.00;8.03;;;;;;;11.30;65.14;101210.91;5010356;28;20401;-68
2022/04/28 02:02:08;;;;;;;10.53;8.80;;;;;;;11.28;65.27;101207.63;5028644;28;20402;-68
2022/04/28 02:04:33;;;;;;;11.03;8.73;;;;;;;11.30;65.50;101217.19;5021851;28;20880;-68
2022/04/28 02:06:59;;;;;;;9.53;8.53;;;;;;;11.33;65.48;101219.44;5024539;28;20407;-68
2022/04/28 02:09:24;;;;;;;9.90;8.40;;;;;;;11.30;65.37;101206.34;5015623;28;20397;-68
2022/04/28 02:11:49;;;;;;;10.97;9.17;;;;;;;11.26;65.06;101220.59;5028804;28;20418;-68
2022/04/28 02:14:14;;;;;;;9.73;8.60;;;;;;;11.21;65.38;101215.88;5014939;28;20418;-68
2022/04/28 02:16:40;;;;;;;10.00;9.00;;;;;;;11.19;65.60;101219.88;5022378;28;20505;-68
2022/04/28 02:19:05;;;;;;;10.27;8.30;;;;;;;11.15;65.26;101218.66;5014923;28;20468;-68
2022/04/28 02:21:30;;;;;;;9.30;8.40;;;;;;;11.12;65.67;101228.09;5026866;28;20439;-68
2022/04/28 02:23:56;;;;;;;8.77;7.87;;;;;;;11.13;65.60;101221.59;5027404;28;20409;-69
2022/04/28 02:26:21;;;;;;;9.83;8.57;;;;;;;11.16;65.61;101228.47;5023372;28;20412;-68
2022/04/28 02:28:46;;;;;;;9.70;8.70;;;;;;;11.16;65.61;101223.03;5012529;28;20461;-68
2022/04/28 02:31:11;;;;;;;11.77;8.90;;;;;;;11.15;65.24;101224.09;5030382;28;20459;-68
2022/04/28 02:33:38;;;;;;;9.97;8.27;;;;;;;11.14;65.58;101227.84;5016037;28;20391;-68
2022/04/28 02:36:04;;;;;;;12.88;8.77;;;;;;;11.10;65.45;101230.19;5025131;28;20410;-68
2022/04/28 02:38:29;;;;;;;8.95;7.65;;;;;;;11.06;65.74;101234.44;5031449;28;20790;-68
2022/04/28 02:40:54;;;;;;;9.70;7.50;;;;;;;11.08;65.54;101229.63;5019174;28;20929;-68
2022/04/28 02:43:20;;;;;;;8.32;7.53;;;;;;;11.12;65.50;101230.81;5010674;28;20499;-68
2022/04/28 02:45:46;;;;;;;9.13;8.23;;;;;;;11.14;65.26;101238.72;5011424;28;20773;-68
2022/04/28 02:48:11;;;;;;;7.80;7.10;;;;;;;11.13;65.21;101239.78;5031393;28;20413;-68
2022/04/28 02:50:37;;;;;;;8.40;7.67;;;;;;;11.08;65.37;101236.91;5015891;28;20458;-68
2022/04/28 02:53:02;;;;;;;9.40;7.93;;;;;;;11.05;65.38;101242.81;5028904;28;20407;-68
2022/04/28 02:55:27;;;;;;;8.43;7.63;;;;;;;11.01;65.53;101236.16;5021359;28;20403;-68
2022/04/28 02:57:52;;;;;;;8.57;7.67;;;;;;;10.97;65.61;101243.94;5013530;28;20899;-68
2022/04/28 03:00:18;;;;;;;9.13;7.80;;;;;;;10.89;65.77;101236.97;5020890;28;20828;-68
2022/04/28 03:02:43;;;;;;;9.13;8.33;;;;;;;10.85;65.85;101235.75;5027584;28;20391;-68
2022/04/28 03:05:09;;;;;;;8.73;7.87;;;;;;;10.83;66.08;101240.56;5017131;28;20514;-68
2022/04/28 03:13:53;;;;;;;8.35;7.57;;;;;;;10.84;65.51;101239.50;5020983;28;20458;-69
2022/04/28 03:16:18;;;;;;;8.85;7.97;;;;;;;10.80;65.60;101241.00;5029068;28;20407;-68
2022/04/28 03:18:44;;;;;;;8.68;7.72;;;;;;;10.77;65.66;101246.88;5022768;28;20410;-68
2022/04/28 03:21:11;;;;;;;9.00;7.60;;;;;;;10.76;65.90;101244.44;5018777;28;20496;-68
2022/04/28 03:23:36;;;;;;;8.53;7.73;;;;;;;10.68;65.79;101240.13;5027528;28;20407;-68
2022/04/28 03:26:01;;;;;;;8.87;7.97;;;;;;;10.60;66.15;101243.16;5019028;28;20904;-68
2022/04/28 03:28:26;;;;;;;8.47;7.60;;;;;;;10.61;66.20;101244.78;5030628;28;20498;-68
2022/04/28 03:30:52;;;;;;;8.70;7.90;;;;;;;10.63;66.08;101250.84;5021557;28;20420;-68
2022/04/28 03:33:18;;;;;;;8.73;7.93;;;;;;;10.65;65.97;101251.44;5024654;28;20402;-68
2022/04/28 03:35:44;;;;;;;10.55;7.38;;;;;;;10.61;66.13;101252.94;5027126;28;20417;-68
2022/04/28 03:38:13;;;;;;;8.67;7.97;;;;;;;10.59;66.12;101251.50;5031359;28;20395;-68
2022/04/28 03:40:40;;;;;;;7.97;7.22;;;;;;;10.54;66.31;101248.66;5015612;28;20419;-68
2022/04/28 03:43:05;;;;;;;9.15;8.30;;;;;;;10.48;66.69;101247.66;5034633;28;20386;-68
2022/04/28 03:45:32;;;;;;;9.60;8.60;;;;;;;10.40;67.18;101254.22;5018523;28;20413;-68
2022/04/28 03:47:57;;;;;;;8.88;8.07;;;;;;;10.43;67.40;101252.94;5027395;28;20410;-68
2022/04/28 03:50:22;;;;;;;9.57;7.97;;;;;;;10.47;67.11;101256.03;5027762;28;20531;-68
2022/04/28 03:52:48;;;;;;;9.30;8.27;;;;;;;10.50;66.97;101261.81;5024247;28;20453;-68
2022/04/28 03:55:13;;;;;;;8.85;8.00;;;;;;;10.52;67.15;101267.00;5033647;28;20474;-68
2022/04/28 03:57:38;;;;;;;8.33;7.53;;;;;;;10.53;67.06;101264.09;5018362;28;20748;-68
2022/04/28 04:00:05;;;;;;;8.93;7.90;;;;;;;10.54;66.94;101260.28;5029047;28;20820;-68
2022/04/28 04:02:30;;;;;;;8.70;7.87;;;;;;;10.56;66.92;101268.22;5014104;28;20953;-68
2022/04/28 04:04:56;;;;;;;8.83;8.03;;;;;;;10.55;66.87;101266.56;5032358;28;20441;-68
2022/04/28 04:07:21;;;;;;;11.70;8.03;;;;;;;10.54;66.49;101264.91;5030769;28;20423;-68
2022/04/28 04:09:46;;;;;;;8.55;7.60;;;;;;;10.53;66.46;101268.66;5019265;28;20395;-68
2022/04/28 04:12:12;;;;;;;9.07;8.20;;;;;;;10.51;66.38;101268.03;5013954;28;20415;-68
2022/04/28 04:14:37;;;;;;;8.82;7.95;;;;;;;10.51;66.71;101273.47;5018886;28;20415;-68
2022/04/28 04:17:02;;;;;;;8.70;7.90;;;;;;;10.49;66.66;101270.16;5020459;28;20407;-68
2022/04/28 04:19:28;;;;;;;8.75;7.95;;;;;;;10.48;66.53;101271.22;5008872;28;20409;-68
2022/04/28 04:21:53;;;;;;;8.20;7.40;;;;;;;10.47;66.42;101283.13;4993360;28;20421;-68
2022/04/28 04:24:18;;;;;;;8.43;7.70;;;;;;;10.45;66.37;101283.34;5007333;28;20417;-68
2022/04/28 04:26:43;;;;;;;11.90;8.03;;;;;;;10.39;66.49;101282.34;5016794;28;20416;-68
2022/04/28 04:29:09;;;;;;;9.17;8.17;;;;;;;10.39;66.55;101282.34;5017715;28;20868;-68
2022/04/28 04:34:18;;;;;;;9.40;8.25;;;;;;;10.34;66.67;101301.16;5019956;28;20447;-68
2022/04/28 04:36:43;;;;;;;8.60;7.90;;;;;;;10.27;66.89;101305.00;5011957;28;20780;-68
2022/04/28 04:39:08;;;;;;;8.83;7.70;;;;;;;10.27;67.04;101291.44;5024692;28;20407;-68
2022/04/28 04:41:34;;;;;;;8.87;8.07;;;;;;;10.27;66.83;101303.09;5027949;28;20426;-68
2022/04/28 04:43:59;;;;;;;9.23;8.37;;;;;;;10.21;67.01;101314.81;5015661;28;20739;-68
2022/04/28 04:46:24;;;;;;;10.23;7.83;;;;;;;10.16;67.09;101311.94;5020840;28;20400;-68
2022/04/28 04:48:49;;;;;;;9.43;8.27;;;;;;;10.18;67.16;101317.97;5023695;28;20412;-68
2022/04/28 04:51:15;;;;;;;9.20;8.30;;;;;;;10.18;67.15;101317.13;5017679;28;20412;-68
2022/04/28 04:53:40;;;;;;;9.33;7.97;;;;;;;10.18;67.49;101322.53;5014589;28;20848;-68
2022/04/28 04:56:06;;;;;;;11.77;8.32;;;;;;;10.19;67.26;101332.34;5010732;28;20417;-68
2022/04/28 04:58:31;;;;;;;9.75;8.90;;;;;;;10.18;67.56;101336.09;5013333;28;20454;-68
2022/04/28 05:00:57;;;;;;;10.20;8.63;;;;;;;10.12;67.54;101335.06;5007817;28;20560;-68
2022/04/28 05:03:22;;;;;;;9.43;8.53;;;;;;;10.13;67.88;101335.91;5008091;28;20409;-68
2022/04/28 05:05:47;;;;;;;9.03;8.23;;;;;;;10.11;67.61;101333.41;5007961;28;20388;-68
2022/04/28 05:08:14;;;;;;;11.13;9.30;;;;;;;10.17;67.83;101339.88;5012423;28;20456;-68
2022/04/28 05:10:39;;;;;;;8.85;7.97;;;;;;;10.19;67.64;101338.59;5026904;28;20414;-68
2022/04/28 05:13:05;;;;;;;9.43;8.63;;;;;;;10.17;67.75;101343.41;5026036;28;20431;-68
2022/04/28 05:15:30;;;;;;;9.73;8.80;;;;;;;10.19;68.11;101349.44;5021574;28;20397;-68
2022/04/28 05:17:55;;;;;;;9.93;8.80;;;;;;;10.20;68.14;101355.69;5026757;28;20395;-68
2022/04/28 05:20:20;;;;;;;11.40;9.23;;;;;;;10.20;68.14;101352.97;5022157;28;20395;-68
2022/04/28 05:22:46;;;;;;;10.07;9.07;;;;;;;10.18;67.92;101355.06;5027935;28;20403;-68
2022/04/28 05:25:11;;;;;;;10.20;8.73;;;;;;;10.16;68.43;101360.72;5022383;28;20426;-68
2022/04/28 05:27:36;;;;;;;10.73;8.47;;;;;;;10.19;68.12;101359.44;5003512;28;20420;-68
2022/04/28 05:30:02;;;;;;;13.20;8.77;;;;;;;10.24;68.00;101357.72;5003945;28;20420;-68
2022/04/28 05:32:27;;;;;;;9.63;8.70;;;;;;;10.31;67.79;101369.31;5003176;28;20409;-67
2022/04/28 05:34:53;;;;;;;11.55;8.63;;;;;;;10.37;67.98;101363.00;5003784;28;20908;-67
2022/04/28 05:37:19;;;;;;;9.77;8.77;;;;;;;10.44;67.60;101370.28;5004024;28;20451;-68
2022/04/28 05:39:45;;;;;;;10.52;8.32;;;;;;;10.43;68.04;101368.63;5004212;28;20834;-69
2022/04/28 05:42:11;;;;;;;10.52;8.85;;;;;;;10.49;68.02;101368.56;5006290;28;20415;-68
2022/04/28 05:47:21;;;;;;;10.35;8.85;;;;;;;10.62;67.46;101367.59;5032200;28;20457;-68
2022/04/28 05:49:46;;;;;;;9.40;8.50;;;;;;;10.57;67.86;101376.38;5015681;28;20892;-68
2022/04/28 05:52:11;;;;;;;9.50;8.70;;;;;;;10.59;67.64;101379.72;5009806;28;20413;-68
2022/04/28 05:54:40;;;;;;;10.27;9.27;;;;;;;10.62;67.35;101383.88;5016926;28;20395;-68
2022/04/28 05:57:06;;;;;;;9.85;8.85;;;;;;;10.67;67.92;101379.44;5019920;28;20388;-68
2022/04/28 05:59:31;;;;;;;10.73;9.00;;;;;;;10.69;67.68;101382.75;5021741;28;20416;-68
2022/04/28 06:01:57;;;;;;;9.07;8.20;;;;;;;10.74;67.74;101382.06;5002969;28;20419;-68
2022/04/28 06:04:22;;;;;;;9.93;8.83;;;;;;;10.77;67.28;101392.47;5003447;28;20500;-68
2022/04/28 06:06:47;;;;;;;10.27;8.43;;;;;;;10.81;67.41;101389.09;5003296;28;20432;-68
2022/04/28 06:09:13;;;;;;;10.03;8.57;;;;;;;10.81;67.62;101396.41;5033964;28;20420;-68
2022/04/28 06:11:38;;;;;;;9.80;8.80;;;;;;;10.83;67.81;101402.44;5003609;28;20841;-68
2022/04/28 06:14:03;;;;;;;10.18;9.18;;;;;;;10.87;67.57;101393.63;5002613;28;20422;-68
2022/04/28 06:16:28;;;;;;;10.00;9.10;;;;;;;10.91;67.40;101388.56;5003429;28;20429;-68
2022/04/28 06:18:54;;;;;;;10.33;9.07;;;;;;;10.97;67.50;101395.81;5012024;28;20511;-67
2022/04/28 06:21:19;;;;;;;11.70;8.67;;;;;;;10.99;67.40;101393.72;5002805;28;20416;-68
2022/04/28 06:23:45;;;;;;;10.30;9.20;;;;;;;11.05;67.33;101391.97;5000868;28;21031;-68
2022/04/28 06:26:11;;;;;;;9.27;8.35;;;;;;;11.10;67.37;101403.00;5000129;28;20420;-68
2022/04/28 06:28:36;;;;;;;9.73;8.73;;;;;;;11.14;67.25;101401.47;5001330;28;20834;-68
2022/04/28 06:31:02;;;;;;;9.50;8.60;;;;;;;11.17;67.25;101395.59;5001897;28;20880;-68
2022/04/28 06:33:28;;;;;;;10.15;9.10;;;;;;;11.20;67.16;101398.69;5002936;28;20432;-68
2022/04/28 06:35:54;;;;;;;9.25;8.35;;;;;;;11.24;67.31;101399.91;5006118;28;21106;-67
2022/04/28 06:38:19;;;;;;;13.25;9.07;;;;;;;11.29;66.95;101404.66;5004172;28;20412;-67
2022/04/28 06:40:45;;;;;;;10.63;9.00;;;;;;;11.35;66.69;101401.88;5001803;28;20413;-67
2022/04/28 06:43:10;;;;;;;9.73;8.73;;;;;;;11.38;66.92;101398.69;5001276;28;20528;-67
2022/04/28 06:45:36;;;;;;;11.27;9.50;;;;;;;11.43;66.72;101401.53;5002855;28;20953;-67
2022/04/28 06:48:02;;;;;;;9.45;8.35;;;;;;;11.44;66.45;101399.66;5003432;28;20497;-67
2022/04/28 06:50:27;;;;;;;9.52;8.43;;;;;;;11.41;66.16;101394.69;5001730;28;20900;-67
2022/04/28 06:52:52;;;;;;;9.33;8.33;;;;;;;11.41;66.36;101403.66;5000769;28;20764;-67
2022/04/28 06:55:18;;;;;;;9.10;8.07;;;;;;;11.45;66.59;101404.03;5004820;28;20420;-68
2022/04/28 06:57:43;;;;;;;10.90;8.43;;;;;;;11.48;66.33;101398.16;5002394;28;20503;-67
2022/04/28 07:00:09;;;;;;;9.33;8.47;;;;;;;11.48;66.20;101403.59;5003654;28;20424;-68
2022/04/28 07:02:34;;;;;;;8.93;8.17;;;;;;;11.53;66.26;101402.88;5005293;28;20919;-68
2022/04/28 07:05:00;;;;;;;9.17;8.27;;;;;;;11.54;66.48;101404.56;5004860;28;20416;-68
2022/04/28 07:07:25;;;;;;;10.10;7.90;;;;;;;11.54;66.15;101410.81;5005317;28;20477;-68
2022/04/28 07:09:51;;;;;;;9.53;8.53;;;;;;;11.55;66.29;101407.06;5003302;28;20835;-67
2022/04/28 07:12:16;;;;;;;9.30;8.30;;;;;;;11.60;66.02;101414.50;5004789;28;20425;-67
2022/04/28 07:14:43;;;;;;;9.57;8.57;;;;;;;11.64;66.26;101418.41;5003774;28;20417;-68
2022/04/28 07:17:08;;;;;;;11.13;8.40;;;;;;;11.70;66.22;101420.22;5007435;28;20448;-67
2022/04/28 07:19:34;;;;;;;10.37;8.87;;;;;;;11.75;66.39;101417.69;5004069;28;20503;-68
2022/04/28 07:22:02;;;;;;;9.07;8.17;;;;;;;11.79;66.12;101410.72;4999589;28;20746;-68
2022/04/28 07:24:29;;;;;;;9.70;8.32;;;;;;;11.84;66.10;101417.13;5008925;28;20410;-68
2022/04/28 07:26:54;;;;;;;8.98;8.13;;;;;;;11.89;66.01;101421.84;5010956;28;20424;-68
2022/04/28 07:29:19;;;;;;;9.17;7.97;;;;;;;11.97;65.84;101429.69;5011223;28;20392;-68
2022/04/28 07:31:45;;;;;;;10.03;8.50;;;;;;;11.98;65.67;101430.53;5016197;28;20412;-68
2022/04/28 07:34:10;;;;;;;10.27;8.30;;;;;;;12.00;65.34;101431.94;5018415;28;20409;-68
2022/04/28 07:36:35;;;;;;;8.60;7.72;;;;;;;12.00;65.84;101439.28;5003491;28;20433;-68
2022/04/28 07:39:01;;;;;;;8.60;7.70;;;;;;;12.06;66.02;101433.75;5021179;28;20396;-68
2022/04/28 07:41:26;;;;;;;10.97;7.90;;;;;;;12.11;65.67;101439.34;5022096;28;20443;-68
2022/04/28 07:43:51;;;;;;;8.40;7.60;;;;;;;12.15;65.51;101439.69;5011978;28;20440;-68
2022/04/28 07:46:17;;;;;;;8.47;7.20;;;;;;;12.20;65.42;101439.81;5015342;28;20403;-68
2022/04/28 07:48:42;;;;;;;8.43;7.70;;;;;;;12.25;65.46;101434.53;5022385;28;20891;-68
2022/04/28 07:51:07;;;;;;;8.43;7.53;;;;;;;12.30;65.17;101438.19;5017815;28;20435;-68
2022/04/28 07:53:33;;;;;;;9.32;6.90;;;;;;;12.35;65.36;101446.47;5027158;28;20398;-68
2022/04/28 07:56:10;;;;;;;8.70;7.00;;;;;;;12.39;65.25;101439.53;5014649;28;20464;-68
2022/04/28 07:58:37;;;;;;;7.90;7.20;;;;;;;12.47;65.11;101443.81;5014602;28;20424;-68
2022/04/28 08:01:04;;;;;;;9.05;7.47;;;;;;;12.55;64.68;101448.88;5005641;28;20417;-68
2022/04/28 08:03:29;;;;;;;8.07;6.82;;;;;;;12.61;64.77;101438.97;5005007;28;20474;-68
2022/04/28 08:05:55;;;;;;;7.63;6.93;;;;;;;12.65;64.32;101438.25;5004580;28;20811;-68
2022/04/28 08:08:21;;;;;;;7.40;6.70;;;;;;;12.73;64.47;101439.81;5022749;28;20399;-68
2022/04/28 08:10:47;;;;;;;9.50;7.03;;;;;;;12.80;64.47;101440.53;5019936;28;20900;-68
2022/04/28 08:13:13;;;;;;;7.30;6.60;;;;;;;12.88;64.02;101434.72;5005248;28;20912;-67
2022/04/28 08:15:38;;;;;;;6.77;6.20;;;;;;;12.94;64.02;101436.53;5004399;28;20895;-68
2022/04/28 08:18:04;;;;;;;7.00;6.30;;;;;;;12.97;63.89;101438.78;5017625;28;20450;-68
2022/04/28 08:20:30;;;;;;;9.00;6.97;;;;;;;12.99;63.03;101442.06;5003980;28;20496;-68
2022/04/28 08:22:55;;;;;;;8.67;6.97;;;;;;;13.08;63.02;101445.25;5005556;28;21383;-68
2022/04/28 08:25:20;;;;;;;6.63;5.97;;;;;;;13.17;62.70;101439.22;5005179;28;20499;-67
2022/04/28 08:27:46;;;;;;;8.43;6.27;;;;;;;13.25;62.56;101444.34;5003243;28;20900;-67
2022/04/28 08:30:11;;;;;;;5.43;4.90;;;;;;;13.34;62.68;101448.34;5002195;28;20954;-67
2022/04/28 08:32:36;;;;;;;5.97;4.90;;;;;;;13.42;61.14;101436.25;5012067;28;20409;-68
2022/04/28 08:35:02;;;;;;;5.10;4.70;;;;;;;13.55;60.83;101441.44;5012486;28;20421;-67
2022/04/28 08:37:28;;;;;;;5.20;4.80;;;;;;;13.62;60.18;101439.41;5005490;28;20886;-65
2022/04/28 08:39:53;;;;;;;7.00;5.37;;;;;;;13.69;59.89;101442.00;5005895;28;20500;-68
2022/04/28 08:42:21;;;;;;;6.57;4.80;;;;;;;13.80;59.65;101441.94;5023370;28;20418;-68
2022/04/28 08:44:47;;;;;;;4.55;4.25;;;;;;;13.87;59.14;101437.19;5011815;28;20484;-68
2022/04/28 08:47:13;;;;;;;4.37;3.97;;;;;;;14.07;57.66;101444.09;5015040;28;20502;-69
2022/04/28 08:49:42;;;;;;;4.60;3.33;;;;;;;14.23;56.28;101437.84;5010224;28;20443;-69
2022/04/28 08:52:08;;;;;;;3.60;3.30;;;;;;;14.34;55.58;101442.44;5004379;28;20768;-68
2022/04/28 08:54:36;;;;;;;3.90;3.45;;;;;;;14.49;54.79;101443.53;5005854;28;20421;-68
2022/04/28 08:57:02;;;;;;;3.58;3.20;;;;;;;14.64;53.51;101444.88;5012468;28;20486;-68
2022/04/28 08:59:27;;;;;;;3.03;2.80;;;;;;;14.76;51.60;101446.44;5008185;28;20483;-68
2022/04/28 09:01:52;;;;;;;5.80;3.33;;;;;;;14.89;49.79;101442.53;5008493;28;20401;-68
2022/04/28 09:04:18;;;;;;;4.87;2.80;;;;;;;15.01;49.44;101448.75;5014555;28;20812;-68
2022/04/28 09:06:48;;;;;;;5.30;2.90;;;;;;;15.14;48.33;101439.38;5004953;28;20829;-68
2022/04/28 09:09:15;;;;;;;4.53;3.03;;;;;;;15.22;48.46;101444.38;5003641;28;20425;-68
2022/04/28 09:11:42;;;;;;;3.97;3.58;;;;;;;15.30;49.43;101447.53;5021360;28;20438;-68
2022/04/28 09:14:17;;;;;;;3.10;2.80;;;;;;;15.48;47.88;101444.53;5014437;28;20488;-69
2022/04/28 09:17:03;;;;;;;5.80;3.33;;;;;;;15.70;47.12;101443.72;5002414;28;20911;-68
2022/04/28 09:19:32;;;;;;;3.00;2.80;;;;;;;15.91;45.82;101440.13;5003676;28;20423;-68
2022/04/28 09:22:00;;;;;;;3.20;2.90;;;;;;;16.14;43.51;101442.56;5009334;28;20444;-68
2022/04/28 09:24:27;;;;;;;3.95;2.90;;;;;;;16.67;43.52;101440.88;5004465;28;20401;-69
2022/04/28 09:26:54;;;;;;;3.33;2.40;;;;;;;17.06;41.32;101445.00;5012887;28;20420;-69
2022/04/28 09:29:20;;;;;;;2.90;2.70;;;;;;;17.06;41.76;101436.78;5012943;28;20401;-69
2022/04/28 09:31:48;;;;;;;2.60;2.40;;;;;;;16.96;42.54;101445.78;5015447;28;20408;-68
2022/04/28 09:34:15;;;;;;;4.32;2.67;;;;;;;17.08;41.05;101451.91;5013645;28;20416;-68
2022/04/28 09:43:24;;;;;;;3.75;2.60;;;;;;;17.61;40.45;101445.38;5010735;28;20906;-69
2022/04/28 09:45:50;;;;;;;3.67;2.53;;;;;;;18.01;40.50;101439.19;5012362;28;20405;-69
2022/04/28 09:48:17;;;;;;;3.40;2.00;;;;;;;18.38;39.26;101438.16;5013203;28;21130;-69
2022/04/28 09:50:43;;;;;;;3.92;2.72;;;;;;;18.64;36.92;101434.34;5015986;28;20397;-69
2022/04/28 09:53:08;;;;;;;3.25;2.30;;;;;;;19.25;36.25;101437.03;5011580;28;20393;-70
2022/04/28 09:55:34;;;;;;;5.20;2.53;;;;;;;20.17;34.75;101437.22;5012281;28;20531;-70
2022/04/28 09:58:06;;;;;;;2.90;2.53;;;;;;;20.85;32.04;101430.91;5016729;28;20492;-69
2022/04/28 10:00:31;;;;;;;4.85;2.78;;;;;;;21.31;31.96;101429.38;5002022;28;20900;-69
2022/04/28 10:02:59;;;;;;;4.53;2.40;;;;;;;22.04;30.78;101438.13;5017643;28;20433;-69
2022/04/28 10:05:26;;;;;;;2.83;2.50;;;;;;;22.86;30.04;101432.97;5010204;28;20394;-69
2022/04/28 10:07:52;;;;;;;2.43;2.30;;;;;;;23.29;28.37;101430.78;5013121;28;20420;-70
2022/04/28 10:10:17;;;;;;;2.75;2.22;;;;;;;23.70;28.54;101433.59;5012249;28;20954;-69
2022/04/28 10:12:43;;;;;;;2.90;2.27;;;;;;;23.99;27.09;101439.59;5012339;28;20488;-69
2022/04/28 10:15:11;;;;;;;2.65;2.20;;;;;;;24.23;27.81;101431.88;5010034;28;20404;-69
2022/04/28 10:18:18;;;;;;;3.13;1.90;;;;;;;24.61;28.39;101435.09;5007699;28;20784;-69
2022/04/28 10:20:45;;;;;;;2.20;1.80;;;;;;;24.60;26.46;101430.69;5021833;28;20415;-69
2022/04/28 10:23:12;;;;;;;1.70;1.38;;;;;;;25.15;25.84;101425.69;5028080;28;20406;-69
2022/04/28 10:34:15;;;;;;;3.20;1.90;;;;;;;27.00;22.55;101418.56;5020687;28;20418;-69
2022/04/28 10:37:12;;;;;;;6.78;2.00;;;;;;;27.16;22.37;101430.78;5015576;28;20413;-69
2022/04/28 10:39:45;;;;;;;2.65;1.80;;;;;;;27.34;22.15;101422.03;5000079;28;20518;-69
2022/04/28 10:42:42;;;;;;;5.77;2.13;;;;;;;26.98;21.36;101421.69;5019762;28;20439;-69
2022/04/28 10:45:25;;;;;;;2.20;1.60;;;;;;;27.29;22.16;101422.22;5006423;28;20811;-69
2022/04/28 10:48:16;;;;;;;4.10;2.30;;;;;;;27.85;21.25;101431.31;5015811;28;20417;-70
2022/04/28 10:50:41;;;;;;;3.08;1.58;;;;;;;27.97;21.19;101428.59;5021972;28;20759;-70
2022/04/28 10:53:10;;;;;;;2.57;1.80;;;;;;;28.34;20.03;101424.06;5026825;28;20397;-69
2022/04/28 10:55:43;;;;;;;2.10;1.80;;;;;;;27.63;19.03;101428.81;5013937;28;20459;-69
2022/04/28 10:58:25;;;;;;;1.73;1.63;;;;;;;27.93;20.35;101429.59;5017134;28;20887;-70
2022/04/28 11:00:51;;;;;;;3.05;2.08;;;;;;;28.34;20.18;101429.66;5014517;28;20758;-70
2022/04/28 11:03:49;;;;;;;2.97;2.03;;;;;;;28.46;20.24;101437.25;5023623;28;20479;-70
2022/04/28 11:06:17;;;;;;;1.80;1.70;;;;;;;28.34;19.53;101426.84;5019198;28;20895;-70
2022/04/28 11:08:55;;;;;;;2.03;1.83;;;;;;;28.10;20.03;101435.06;5009021;28;20444;-70
2022/04/28 11:11:20;;;;;;;2.28;1.50;;;;;;;28.52;21.03;101422.75;5011990;28;20401;-69
2022/04/28 11:13:49;;;;;;;2.10;1.67;;;;;;;28.79;20.40;101429.72;5008548;28;20902;-69
2022/04/28 11:16:16;;;;;;;2.37;1.90;;;;;;;28.59;19.42;101425.78;5027542;28;20395;-70
2022/04/28 11:18:43;;;;;;;3.63;1.95;;;;;;;28.32;20.19;101432.75;5013394;28;20432;-69
2022/04/28 11:21:08;;;;;;;1.88;1.77;;;;;;;28.13;20.05;101432.44;5010898;28;20409;-70
2022/04/28 11:23:43;;;;;;;1.67;1.65;;;;;;;28.17;21.24;101424.22;5012543;28;20926;-70
2022/04/28 11:26:09;;;;;;;2.40;1.83;;;;;;;28.08;20.10;101426.25;5025126;28;20720;-70
2022/04/28 11:28:36;;;;;;;4.40;1.70;;;;;;;28.02;21.38;101424.78;5009589;28;20417;-69
2022/04/28 11:31:06;;;;;;;3.50;2.20;;;;;;;28.22;20.55;101430.38;5017920;28;20937;-70
2022/04/28 11:33:31;;;;;;;1.98;1.70;;;;;;;28.14;21.08;101425.72;5014701;28;20399;-70
2022/04/28 11:35:57;;;;;;;1.80;1.48;;;;;;;28.09;20.60;101422.31;5030601;28;20395;-70
2022/04/28 11:38:24;;;;;;;2.65;1.83;;;;;;;27.95;20.62;101430.09;5006621;28;20923;-70
2022/04/28 11:41:03;;;;;;;1.97;1.83;;;;;;;27.92;21.61;101425.19;5016917;28;20480;-70
2022/04/28 11:43:34;;;;;;;3.20;1.90;;;;;;;28.05;21.68;101424.13;5018176;28;20894;-70
2022/04/28 11:46:01;;;;;;;2.47;1.70;;;;;;;28.48;21.87;101418.22;5017839;28;20798;-70
2022/04/28 11:48:28;;;;;;;2.10;1.90;;;;;;;28.55;21.94;101416.47;5028254;28;20729;-70
2022/04/28 11:50:53;;;;;;;3.58;1.85;;;;;;;28.60;21.70;101407.09;5025485;28;20400;-70
2022/04/28 11:53:19;;;;;;;2.07;1.97;;;;;;;28.21;21.31;101414.84;5020110;28;20934;-70
2022/04/28 11:55:44;;;;;;;2.13;1.92;;;;;;;28.16;22.58;101408.63;5024720;28;20403;-70
2022/04/28 11:58:15;;;;;;;3.40;1.90;;;;;;;28.08;22.23;101407.56;5018461;28;20492;-67